Search for airport 
image banner adimage banner adimage banner ad
image banner ad

KAOO - Altoona-Blair County

Located in Altoona, United States

ICAO - AOO, IATA - AOO

Data provided by Airmate  

General information

Coordinates: N40°17'47" W78°19'12"
Elevation is 1503 feet MSL.
Magnetic variation is -10° East
View others Airports in Pennsylvania

Operational data

Special qualification required
Current time UTC:
Current local time:
Weather
METAR: KAOO 091722Z AUTO 03004KT 4SM -RA BR BKN009 BKN014 OVC050 06/03 A2996 RMK AO2 RAE1659B09 CIG 007V011 P0003 T00560033
TAF: KAOO 091537Z 0916/1012 15010KT 4SM -RA BR OVC020 FM100200 34008G16KT 2SM -RA BR OVC006 WS020/21043KT FM100800 33008G15KT P6SM BKN009 OVC012
View NOTAMs / SUP AIP / TFR affecting this airport [VIEW]
Communications frequencies: [VIEW]

Runways:

RWY identifierQFULength (ft)Width (ft)SurfaceLDA (ft)
0316°5465100ASPH5465
21196°5465100ASPH5465
12108°366875ASPH3668
30288°366875ASPH3668

Airport contact information

Address: Altoona United States

Satellite view of KAOO